チューリッヒ の空港の天気 - METARとTAF

チューリヒ国際空港 ( LSZH / ZRH ) - スイス チューリッヒ
飛行場実況気象(Metar)
観測時間12/06 10:50 CET (12/06 09:50 UTC)
風向・風速不定 1m/s
視程6000m
天気現象
少しの雲 雲底高度 210m
全天の8割程度の雲 雲底高度 270m
気温3℃
湿度81%
気圧1018hPa
METARLSZH 060950Z VRB02KT 6000 FEW007 BKN009 03/00 Q1018 BECMG BKN010
過去の天気等 Google飛行場航空写真 Wunderground天気予報

過去48時間のMETAR

飛行場予報(TAF)
発表時間: 12/06 09:25 CET (12/06 08:25 UTC)
予報対象時間: 6日10時 CET ~ 7日16時 CET
風向・風速不定 1m/s
視程4500m
天気現象もや
全天の4割程度の雲 雲底高度 90m
全天の8割程度の雲 雲底高度 2130m
6日10時 CET ~ 6日13時 CET に徐々に
視程5000m
6日10時 CET から 確率 40% で
全天の8割程度の雲 雲底高度 270m
6日13時 CET ~ 6日19時 CET に一時的に
視程10km以上
なし
6日19時 CET ~ 6日22時 CET に徐々に
全天の8割程度の雲 雲底高度 370m
7日1時 CET から 確率 40% で
視程4000m
天気現象もや
全天の8割程度の雲 雲底高度 150m
7日11時 CET ~ 7日14時 CET に徐々に
全天の8割程度の雲 雲底高度 460m
TAF LSZH 060825Z 0609/0715 VRB02KT 4500 BR SCT003 BKN070 TX03/0613Z TN00/0706Z TX02/0713Z
BECMG 0609/0612 5000
PROB40 0609/0612 BKN009
TEMPO 0612/0618 CAVOK
BECMG 0618/0621 BKN012
PROB40 0700/0710 4000 BR BKN005
BECMG 0710/0713 BKN015